Flight Track Log - Related Links

Times and Time Zones

All times are in EDT time to prevent confusion due to time zone crossing. See the SKW4845 flight status page for this flight to view local times or setup timezone preferences in your user account.

Time Position Orientation Groundspeed Altitude Reporting Facility
EDT Latitude Longitude Course Direction KTS MPH feet Rate Location/Type
Sat 10:21:06 AM 36.0756 -115.1658 270° West 173 199 3,300  Level Los Angeles Center
Sat 10:21:25 AM 36.0767 -115.1814 275° West 157 181 3,900 2,051 Climbing Los Angeles Center
Sat 10:22:25 AM 36.0661 -115.2514 259° West 239 275 6,000 2,131 Climbing Los Angeles Center
Sat 10:23:12 AM 36.0147 -115.2794 204° Southwest 270 311 7,700 2,459 Climbing Los Angeles Center
Sat 10:23:26 AM 35.9967 -115.2900 205° Southwest 298 343 8,500 2,951 Climbing Los Angeles Center
Sat 10:24:00 AM 35.8834 -115.4741 270° West  Level FlightAware Approximate
Sat 10:24:13 AM 35.9467 -115.3314 214° Southwest 291 335 10,700  Level Los Angeles Center
Sat 10:24:27 AM 35.9336 -115.3478 225° Southwest 301 346 11,000 295 Climbing Los Angeles Center
Sat 10:25:00 AM 35.8834 -115.6028 270° West  Level FlightAware Approximate
Sat 10:25:14 AM 35.8883 -115.4158 231° Southwest 302 348 11,000  Level Los Angeles Center
Sat 10:26:00 AM 35.8834 -115.7314 270° West  Level FlightAware Approximate
Sat 10:26:16 AM 35.8883 -115.5211 270° West 306 352 11,000  Level Los Angeles Center
Sat 10:27:17 AM 35.8894 -115.6278 271° West 308 354 12,100 1,805 Climbing Los Angeles Center
Sat 10:28:19 AM 35.8908 -115.7344 271° West 311 358 14,700 2,634 Climbing Los Angeles Center
Sat 10:29:20 AM 35.8933 -115.8542 272° West 321 369 17,500 2,488 Climbing Los Angeles Center
Sat 10:30:22 AM 35.9022 -115.9697 275° West 340 391 19,800 2,000 Climbing Los Angeles Center
Sat 10:31:23 AM 35.9714 -116.0567 315° West 353 406 21,600 1,770 Climbing Los Angeles Center
Sat 10:32:24 AM 36.0506 -116.1497 316° Northwest 363 418 23,400 1,854 Climbing Los Angeles Center
Sat 10:33:26 AM 36.1167 -116.2242 318° Northwest 378 435 25,400 2,390 Climbing Los Angeles Center
Sat 10:34:27 AM 36.2056 -116.3275 317° Northwest 368 423 28,300 2,098 Climbing Los Angeles Center
Sat 10:35:29 AM 36.2775 -116.4114 317° Northwest 361 415 29,700 1,171 Climbing Los Angeles Center
Sat 10:36:30 AM 36.3544 -116.4994 317° Northwest 371 427 30,700 976 Climbing Los Angeles Center
Sat 10:37:32 AM 36.4317 -116.5900 317° Northwest 382 440 31,700 1,024 Climbing Los Angeles Center
Sat 10:38:33 AM 36.5089 -116.6803 317° Northwest 383 441 32,800 1,122 Climbing Los Angeles Center
Sat 10:39:35 AM 36.5989 -116.7739 320° Northwest 390 449 34,000 585 Climbing Los Angeles Center
Sat 10:40:36 AM 36.6936 -116.8442 329° Northwest 392 451 34,000  Level Los Angeles Center
Sat 10:41:38 AM 36.7778 -116.9083 329° Northwest 391 450 34,000  Level Los Angeles Center
Sat 10:42:39 AM 36.8772 -116.9858 328° Northwest 389 448 34,000  Level Los Angeles Center
Sat 10:43:41 AM 36.9686 -117.0544 329° Northwest 387 445 34,000  Level Los Angeles Center
Sat 10:44:33 AM 37.0600 -117.1258 328° Northwest 384 442 34,000  Level Oakland Center
Sat 10:45:44 AM 37.1819 -117.1942 336° Northwest 398 458 34,000  Level Los Angeles Center
Sat 10:46:45 AM 37.2853 -117.2494 337° Northwest 399 459 34,000  Level Los Angeles Center
Sat 10:47:47 AM 37.3853 -117.3072 335° Northwest 398 458 34,000  Level Los Angeles Center
Sat 10:48:48 AM 37.4858 -117.3622 337° Northwest 393 452 34,000  Level Los Angeles Center
Sat 10:49:38 AM 37.5636 -117.4053 336° Northwest 386 444 34,000  Level Oakland Center
Sat 10:50:39 AM 37.6631 -117.4586 337° Northwest 386 444 34,000  Level Oakland Center
Sat 10:51:40 AM 37.7617 -117.5128 337° Northwest 385 443 34,000  Level Oakland Center
Sat 10:52:41 AM 37.8592 -117.5669 336° Northwest 383 441 34,000  Level Oakland Center
Sat 10:53:42 AM 37.9553 -117.6208 336° Northwest 378 435 34,000  Level Oakland Center
Sat 10:54:43 AM 38.0511 -117.6742 336° Northwest 374 430 34,000  Level Oakland Center
Sat 10:55:44 AM 38.1464 -117.7264 337° Northwest 372 428 34,000  Level Oakland Center
Sat 10:56:45 AM 38.2406 -117.7800 336° Northwest 371 427 34,000  Level Oakland Center
Sat 10:57:46 AM 38.3347 -117.8333 336° Northwest 369 425 34,000  Level Oakland Center
Sat 10:58:47 AM 38.4289 -117.8867 336° Northwest 369 425 34,000  Level Oakland Center
Sat 10:59:48 AM 38.5231 -117.9403 336° Northwest 369 425 34,000  Level Oakland Center
Sat 11:00:49 AM 38.6178 -117.9950 336° Northwest 370 426 34,000  Level Oakland Center
Sat 11:01:50 AM 38.7208 -118.0528 336° Northwest 371 427 34,000  Level Oakland Center
Sat 11:02:51 AM 38.8156 -118.1078 336° Northwest 371 427 34,000  Level Oakland Center
Sat 11:03:52 AM 38.9111 -118.1619 336° Northwest 374 430 34,000  Level Oakland Center
Sat 11:04:53 AM 39.0069 -118.2181 336° Northwest 375 432 34,000  Level Oakland Center
Sat 11:05:54 AM 39.1025 -118.2733 336° Northwest 376 433 34,000  Level Oakland Center
Sat 11:06:55 AM 39.2150 -118.3392 336° Northwest 376 433 34,000  Level Oakland Center
Sat 11:07:56 AM 39.3103 -118.3942 336° Northwest 375 432 34,000  Level Oakland Center
Sat 11:08:57 AM 39.4011 -118.4472 336° Northwest 375 432 34,000  Level Oakland Center
Sat 11:09:58 AM 39.4964 -118.5031 336° Northwest 375 432 34,000  Level Oakland Center
Sat 11:10:59 AM 39.5889 -118.5586 335° Northwest 374 430 34,000  Level Oakland Center
Sat 11:12:00 AM 39.6814 -118.6131 336° Northwest 373 429 34,000  Level Oakland Center
Sat 11:13:01 AM 39.7750 -118.6681 336° Northwest 373 429 34,000  Level Oakland Center
Sat 11:14:02 AM 39.8864 -118.7336 336° Northwest 372 428 34,000  Level Oakland Center
Sat 11:15:03 AM 39.9783 -118.7897 335° Northwest 370 426 34,000  Level Oakland Center
Sat 11:16:04 AM 40.0706 -118.8439 336° Northwest 367 422 34,000  Level Oakland Center
Sat 11:17:05 AM 40.1628 -118.8986 336° Northwest 364 419 34,000  Level Oakland Center
Sat 11:18:06 AM 40.2536 -118.9536 335° Northwest 361 415 34,000  Level Oakland Center
Sat 11:19:07 AM 40.3450 -119.0078 336° Northwest 361 415 34,000  Level Oakland Center
Sat 11:20:08 AM 40.4353 -119.0619 335° Northwest 360 414 34,000  Level Oakland Center
Sat 11:21:09 AM 40.5258 -119.1178 335° Northwest 360 414 34,000  Level Oakland Center
Sat 11:23:22 AM 40.7239 -119.2386 335° Northwest 357 411 34,000  Level Seattle Center
Sat 11:24:25 AM 40.8247 -119.2986 336° Northwest 357 411 34,000  Level Oakland Center
Sat 11:25:26 AM 40.9100 -119.3517 335° Northwest 355 409 34,000  Level Oakland Center
Sat 11:26:27 AM 40.9958 -119.4067 334° Northwest 356 410 34,000  Level Oakland Center
Sat 11:27:28 AM 41.0947 -119.4619 337° Northwest 363 418 34,000  Level Oakland Center
Sat 11:28:29 AM 41.1853 -119.5181 335° Northwest 361 415 34,000  Level Oakland Center
Sat 11:29:30 AM 41.2764 -119.5764 334° Northwest 363 418 34,000  Level Oakland Center
Sat 11:30:31 AM 41.3681 -119.6328 335° Northwest 364 419 34,000  Level Oakland Center
Sat 11:31:32 AM 41.4589 -119.6919 334° Northwest 365 420 34,000  Level Oakland Center
Sat 11:32:33 AM 41.5511 -119.7481 336° Northwest 365 420 34,000  Level Oakland Center
Sat 11:33:34 AM 41.6622 -119.8164 335° Northwest 367 422 34,000  Level Oakland Center
Sat 11:34:35 AM 41.7542 -119.8742 335° Northwest 367 422 34,000  Level Oakland Center
Sat 11:35:32 AM 41.8311 -119.9236 334° Northwest 367 422 34,000  Level Seattle Center
Sat 11:36:33 AM 41.9194 -119.9839 333° Northwest 363 418 34,000  Level Seattle Center
Sat 11:37:33 AM 42.0325 -120.0536 335° Northwest 370 426 34,000  Level Seattle Center
Sat 11:38:34 AM 42.1247 -120.1142 334° Northwest 370 426 34,000  Level Seattle Center
Sat 11:39:35 AM 42.2189 -120.1733 335° Northwest 370 426 34,000  Level Seattle Center
Sat 11:40:36 AM 42.3125 -120.2344 334° Northwest 372 428 34,000  Level Seattle Center
Sat 11:41:37 AM 42.4061 -120.2956 334° Northwest 372 428 34,000  Level Seattle Center
Sat 11:42:37 AM 42.4992 -120.3547 335° Northwest 372 428 34,000  Level Seattle Center
Sat 11:43:38 AM 42.5908 -120.4147 334° Northwest 370 426 34,000  Level Seattle Center
Sat 11:44:39 AM 42.6858 -120.4758 335° Northwest 373 429 34,000  Level Seattle Center
Sat 11:45:40 AM 42.7808 -120.5383 334° Northwest 376 433 34,000  Level Seattle Center
Sat 11:46:40 AM 42.8756 -120.6006 334° Northwest 378 435 34,000  Level Seattle Center
Sat 11:47:41 AM 42.9689 -120.6639 334° Northwest 377 434 34,000  Level Seattle Center
Sat 11:48:42 AM 43.0644 -120.7250 335° Northwest 379 436 34,000  Level Seattle Center
Sat 11:49:43 AM 43.1594 -120.7886 334° Northwest 380 437 34,000  Level Seattle Center
Sat 11:50:43 AM 43.2744 -120.8650 334° Northwest 381 438 34,000  Level Seattle Center
Sat 11:51:44 AM 43.3703 -120.9286 334° Northwest 382 440 34,000  Level Seattle Center
Sat 11:52:45 AM 43.4658 -120.9914 335° Northwest 382 440 34,000  Level Seattle Center
Sat 11:53:46 AM 43.5667 -121.0572 335° Northwest 383 441 34,000  Level Seattle Center
Sat 11:54:46 AM 43.6628 -121.1225 334° Northwest 383 441 34,000  Level Seattle Center
Sat 11:55:47 AM 43.7558 -121.1889 333° Northwest 390 449 34,000  Level Seattle Center
Sat 11:56:48 AM 43.8589 -121.2564 335° Northwest 391 450 34,000  Level Seattle Center
Sat 11:57:49 AM 43.9550 -121.3225 334° Northwest 389 448 34,000  Level Seattle Center
Sat 11:58:49 AM 44.0533 -121.3900 334° Northwest 390 449 34,000  Level Seattle Center
Sat 11:59:50 AM 44.1511 -121.4564 334° Northwest 391 450 34,000  Level Seattle Center
Sat 12:00:51 PM 44.2472 -121.5239 333° Northwest 389 448 34,000  Level Seattle Center
Sat 12:01:52 PM 44.3450 -121.5906 334° Northwest 389 448 34,000  Level Seattle Center
Sat 12:02:53 PM 44.4461 -121.6611 334° Northwest 389 448 34,000  Level Seattle Center
Sat 12:03:54 PM 44.5431 -121.7292 333° Northwest 389 448 34,000  Level Seattle Center
Sat 12:04:54 PM 44.6408 -121.7972 334° Northwest 389 448 34,000  Level Seattle Center
Sat 12:05:55 PM 44.7400 -121.8661 334° Northwest 393 452 34,000  Level Seattle Center
Sat 12:06:56 PM 44.8369 -121.9347 333° Northwest 393 452 34,000  Level Seattle Center
Sat 12:07:57 PM 44.9336 -122.0050 333° Northwest 393 452 34,000  Level Seattle Center
Sat 12:08:58 PM 45.0308 -122.0747 333° Northwest 394 453 34,000  Level Seattle Center
Sat 12:09:59 PM 45.1283 -122.1425 334° Northwest 394 453 34,000  Level Seattle Center
Sat 12:11:00 PM 45.2281 -122.2133 333° Northwest 400 460 34,000  Level Seattle Center
Sat 12:12:01 PM 45.3244 -122.2831 333° Northwest 397 457 34,000 -248 Level Seattle Center
Sat 12:13:01 PM 45.4419 -122.3683 333° Northwest 396 456 33,500 -1,240 Descending Seattle Center
Sat 12:14:02 PM 45.5397 -122.4403 333° Northwest 396 456 31,500 -1,967 Descending Seattle Center
Sat 12:15:03 PM 45.6389 -122.5131 333° Northwest 403 464 29,500 -1,967 Descending Seattle Center
Sat 12:16:04 PM 45.7322 -122.5817 333° Northwest 389 448 27,500 -1,967 Descending Seattle Center
Sat 12:17:05 PM 45.8350 -122.6108 349° North 383 441 25,500 -1,721 Descending Seattle Center
Sat 12:18:06 PM 45.9408 -122.6414 349° North 388 447 24,000 -738 Descending Seattle Center
Sat 12:19:07 PM 46.0361 -122.6614 352° North 358 412 24,000  Level Seattle Center
Sat 12:20:08 PM 46.1378 -122.6858 351° North 366 421 24,000  Level Seattle Center
Sat 12:21:09 PM 46.2578 -122.6903 359° North 376 433 24,000  Level Seattle Center
Sat 12:22:09 PM 46.3603 -122.6686 North 375 432 24,000  Level Seattle Center
Sat 12:23:10 PM 46.4636 -122.6506 North 374 430 24,000 -984 Level Seattle Center
Sat 12:24:11 PM 46.5650 -122.6311 North 371 427 22,000 -2,085 Descending Seattle Center
Sat 12:25:08 PM 46.6594 -122.6153 North 360 414 19,900 -2,182 Descending Seattle Center
Sat 12:25:39 PM 46.7128 -122.6061 North 353 406 18,800 -2,215 Descending Seattle Center
Sat 12:26:13 PM 46.7633 -122.5947 North 365 420 17,500 -2,301 Descending Seattle Center
Sat 12:26:52 PM 46.8269 -122.5833 North 342 394 16,000 -2,361 Descending Seattle Center
Sat 12:27:14 PM 46.8631 -122.5767 North 341 392 15,100 -2,333 Descending Seattle Center
Sat 12:27:46 PM 46.9122 -122.5697 North 330 380 13,900 -1,967 Descending Seattle Center
Sat 12:28:15 PM 46.9525 -122.5564 13° North 329 379 13,100 -1,180 Descending Seattle Center
Sat 12:28:47 PM 46.9992 -122.5356 17° North 320 368 12,700 -787 Descending Seattle Center
Sat 12:29:16 PM 47.0386 -122.5181 17° North 327 376 12,300 -982 Descending Seattle Center
Sat 12:29:42 PM 47.0794 -122.5019 15° North 327 376 11,800 -1,000 Descending Seattle Center
Sat 12:30:16 PM 47.1239 -122.4922 North 315 362 11,300 -984 Descending Seattle Center
Sat 12:30:43 PM 47.1619 -122.4861 North 294 338 10,800 -984 Descending Seattle Center
Sat 12:31:17 PM 47.2047 -122.4775 North 294 338 10,300 -985 Descending Seattle Center
Sat 12:31:50 PM 47.2472 -122.4722 North 288 331 9,700 -1,082 Descending Seattle Center
Sat 12:32:18 PM 47.2881 -122.4653 North 282 325 9,200 -1,082 Descending Seattle Center
Sat 12:32:51 PM 47.3267 -122.4614 North 265 305 8,600 -984 Descending Seattle Center
Sat 12:33:19 PM 47.3608 -122.4533 North 266 306 8,200 -984 Descending Seattle Center
Sat 12:33:52 PM 47.3983 -122.4550 358° North 257 296 7,600 -1,180 Descending Seattle Center
Sat 12:34:20 PM 47.4325 -122.4550 360° North 262 302 7,000 -1,300 Descending Seattle Center
Sat 12:34:52 PM 47.4703 -122.4581 357° North 256 295 6,300 -1,082 Descending Seattle Center
Sat 12:35:21 PM 47.5022 -122.4556 North 250 288 5,900 -984 Descending Seattle Center
Sat 12:35:53 PM 47.5369 -122.4578 358° North 232 267 5,300 -984 Descending Seattle Center
Sat 12:36:22 PM 47.5647 -122.4558 North 227 261 4,900 -1,180 Descending Seattle Center
Sat 12:36:54 PM 47.5969 -122.4575 358° North 208 239 4,100 -900 Descending Seattle Center
Sat 12:37:22 PM 47.6225 -122.4556 North 214 246 4,000 -98 Descending Seattle Center
Sat 12:37:55 PM 47.6567 -122.4575 358° North 211 243 4,000 -295 Level Seattle Center
Sat 12:38:23 PM 47.6825 -122.4542 North 213 245 3,700 -787 Descending Seattle Center
Sat 12:38:56 PM 47.6967 -122.4125 63° Northeast 216 249 3,200 -689 Descending Seattle Center
Sat 12:39:24 PM 47.6989 -122.3731 85° East 213 245 3,000 -179 Descending Seattle Center
Sat 12:40:03 PM 47.6697 -122.3417 144° Southeast 186 214 3,000  Level Seattle Center
Sat 12:40:25 PM 47.6519 -122.3275 152° Southeast 194 223 3,000  Level Seattle Center
Sat 12:41:04 PM 47.6239 -122.3178 167° South 182 209 3,000  Level Seattle Center
Sat 12:41:26 PM 47.6044 -122.3169 178° South 186 214 3,000 -327 Level Seattle Center
Sat 12:41:59 PM 47.5769 -122.3175 181° South 179 206 2,700 -689 Descending Seattle Center
Sat 12:42:27 PM 47.5539 -122.3181 181° South 183 211 2,300 -900 Descending Seattle Center
Sat 12:42:59 PM 47.5283 -122.3181 180° South 169 194 1,800 -885 Descending Seattle Center
Sat 12:43:28 PM 47.5086 -122.3175 179° South 170 196 1,400 -787 Descending Seattle Center
Sat 12:44:00 PM 47.4889 -122.3203 185° South 145 167 1,000 -700 Descending Seattle Center
Sat 12:44:28 PM 47.4733 -122.3181 174° South 130 150 700 -404 Descending Seattle Center
Sat 12:45:29 PM 47.4389 -122.3197 182° South 124 143 400 -295 Descending Seattle Center

Login

Don't have an account? Register now (free) for customized features, flight alerts, and more!